Time;durP1;ratioP1;P1;durP2;ratioP2;P2;SDS_P1;SDS_P2;PMS_P1;PMS_P2;Temp;Humidity;BMP_temperature;BMP_pressure;BME280_temperature;BME280_humidity;BME280_pressure;Samples;Min_cycle;Max_cycle;Signal;HPM_P1;HPM_P2
2022/01/25 00:08:23;;;;;;;4.50;4.10;;;21.70;42.60;;;;;;5000544;28;20674;-71
2022/01/25 00:15:11;;;;;;;7.43;6.63;;;21.70;42.50;;;;;;5035610;28;20186;-70
2022/01/25 00:31:01;;;;;;;4.32;3.92;;;21.70;42.60;;;;;;5034299;28;20559;-70
2022/01/25 00:33:31;;;;;;;4.95;4.25;;;21.70;42.50;;;;;;5019932;28;20197;-70
2022/01/25 00:35:59;;;;;;;4.90;4.38;;;21.70;42.50;;;;;;5019918;28;20198;-70
2022/01/25 00:38:24;;;;;;;5.50;4.90;;;21.70;42.50;;;;;;5036342;28;20715;-70
2022/01/25 00:40:50;;;;;;;5.97;5.38;;;21.70;42.30;;;;;;5019724;28;20289;-70
2022/01/25 00:43:16;;;;;;;5.70;4.60;;;21.70;42.40;;;;;;5036103;28;20608;-70
2022/01/25 00:45:42;;;;;;;5.05;4.53;;;21.70;42.30;;;;;;5019592;28;20190;-70
2022/01/25 00:48:17;;;;;;;5.47;4.97;;;21.70;42.30;;;;;;5053775;28;20285;-71
2022/01/25 00:50:43;;;;;;;4.53;4.13;;;21.70;42.30;;;;;;5036399;28;20182;-70
2022/01/25 00:55:53;;;;;;;5.00;4.00;;;21.70;42.40;;;;;;5016007;28;20283;-69
2022/01/25 00:58:19;;;;;;;4.70;3.95;;;21.70;42.40;;;;;;4999660;28;20290;-70
2022/01/25 01:00:45;;;;;;;4.68;4.20;;;21.70;42.40;;;;;;4999731;28;20278;-70
2022/01/25 01:03:11;;;;;;;4.88;4.40;;;21.70;42.40;;;;;;5020783;28;20197;-69
2022/01/25 01:05:38;;;;;;;4.85;4.35;;;21.70;42.40;;;;;;5052475;28;20178;-70
2022/01/25 01:08:04;;;;;;;4.50;3.90;;;21.70;42.40;;;;;;5052513;28;20190;-70
2022/01/25 01:10:30;;;;;;;4.72;4.25;;;21.70;42.90;;;;;;5019631;28;20197;-70
2022/01/25 01:13:24;;;;;;;4.25;3.85;;;21.70;42.20;;;;;;5019157;28;20222;-70
2022/01/25 01:15:58;;;;;;;4.75;4.35;;;21.70;42.30;;;;;;5035210;28;20183;-70
2022/01/25 01:29:26;;;;;;;4.35;3.95;;;21.70;42.20;;;;;;5035300;28;20214;-70
2022/01/25 01:32:08;;;;;;;4.18;3.78;;;21.70;42.10;;;;;;5017432;28;20285;-70
2022/01/25 01:47:43;;;;;;;4.00;3.70;;;21.60;42.10;;;;;;5051539;28;20170;-70
2022/01/25 01:50:14;;;;;;;4.30;3.90;;;21.60;42.10;;;;;;5018478;28;20210;-70
2022/01/25 01:52:41;;;;;;;4.00;3.70;;;21.60;42.10;;;;;;5018169;28;20214;-70
2022/01/25 01:55:08;;;;;;;4.00;3.60;;;21.70;42.10;;;;;;5051257;28;20178;-70
2022/01/25 01:57:35;;;;;;;3.30;3.00;;;21.60;42.00;;;;;;5034938;28;20273;-70
2022/01/25 02:00:04;;;;;;;3.60;3.30;;;21.70;42.00;;;;;;5052543;28;20206;-70
2022/01/25 02:02:39;;;;;;;4.10;3.80;;;21.70;42.00;;;;;;5052376;28;20182;-70
2022/01/25 02:05:05;;;;;;;4.40;4.00;;;21.60;41.80;;;;;;5018598;28;20277;-70
2022/01/25 02:07:31;;;;;;;4.55;4.15;;;21.60;41.80;;;;;;5034967;28;20182;-70
2022/01/25 02:09:57;;;;;;;4.18;3.78;;;21.60;41.80;;;;;;5018204;28;20224;-70
2022/01/25 02:12:23;;;;;;;4.07;3.78;;;21.60;41.90;;;;;;5018279;28;20210;-70
2022/01/25 02:14:49;;;;;;;4.30;3.90;;;21.60;41.80;;;;;;5034427;28;20210;-69
2022/01/25 02:22:25;;;;;;;3.67;3.38;;;21.60;41.80;;;;;;5034810;28;20178;-70
2022/01/25 02:23:18;;;;;;;3.15;2.95;;;21.60;41.90;;;;;;5052030;28;20201;-70
2022/01/25 02:25:54;;;;;;;3.70;3.40;;;21.70;41.80;;;;;;5034283;28;20274;-70
2022/01/25 02:28:22;;;;;;;3.67;3.30;;;21.60;41.80;;;;;;5052269;28;20280;-70
2022/01/25 02:30:49;;;;;;;3.92;3.53;;;21.60;41.80;;;;;;5017950;28;20206;-68
2022/01/25 02:33:14;;;;;;;3.63;3.33;;;21.60;41.70;;;;;;5034903;28;20685;-70
2022/01/25 02:35:41;;;;;;;3.67;3.38;;;21.60;41.70;;;;;;5040824;28;20186;-69
2022/01/25 02:38:07;;;;;;;3.70;3.40;;;21.60;41.70;;;;;;5024486;28;20182;-70
2022/01/25 02:40:34;;;;;;;3.83;3.53;;;21.60;41.70;;;;;;5024790;28;20182;-70
2022/01/25 02:43:00;;;;;;;3.97;3.67;;;21.60;42.20;;;;;;5057788;28;20685;-70
2022/01/25 02:45:32;;;;;;;3.08;2.88;;;21.60;41.50;;;;;;5040355;28;20273;-70
2022/01/25 02:50:44;;;;;;;3.38;3.08;;;21.60;41.70;;;;;;5058926;28;20207;-70
2022/01/25 02:53:10;;;;;;;2.78;2.58;;;21.60;41.70;;;;;;5041069;28;20214;-70
2022/01/25 02:55:39;;;;;;;2.90;2.70;;;21.60;41.70;;;;;;5024350;28;20170;-70
2022/01/25 02:58:07;;;;;;;2.85;2.65;;;21.60;42.20;;;;;;5040817;28;20194;-70
2022/01/25 03:00:33;;;;;;;2.90;2.70;;;21.60;41.70;;;;;;5041179;28;20280;-70
2022/01/25 03:02:59;;;;;;;3.08;2.67;;;21.60;41.60;;;;;;5040679;28;20273;-70
2022/01/25 03:05:25;;;;;;;2.78;2.58;;;21.60;41.60;;;;;;5040831;28;20186;-70
2022/01/25 03:07:51;;;;;;;3.42;3.13;;;21.60;41.60;;;;;;5040944;28;20334;-70
2022/01/25 03:10:17;;;;;;;3.67;3.38;;;21.60;41.50;;;;;;5024281;28;20198;-70
2022/01/25 03:12:48;;;;;;;3.30;3.10;;;21.60;41.50;;;;;;5040426;28;20228;-69
2022/01/25 03:17:51;;;;;;;3.50;3.20;;;21.60;41.50;;;;;;5040586;28;20267;-70
2022/01/25 03:20:21;;;;;;;3.10;2.80;;;21.60;41.50;;;;;;5040852;28;20177;-70
2022/01/25 03:25:24;;;;;;;3.25;2.60;;;21.60;41.50;;;;;;5040211;28;20194;-70
2022/01/25 03:27:50;;;;;;;2.65;2.45;;;21.60;41.60;;;;;;5057087;28;20179;-69
2022/01/25 03:30:17;;;;;;;2.90;2.70;;;21.60;41.60;;;;;;5023692;28;20173;-70
2022/01/25 03:32:42;;;;;;;2.58;2.38;;;21.60;41.60;;;;;;5021053;28;20215;-70
2022/01/25 03:35:09;;;;;;;2.50;2.30;;;21.60;41.50;;;;;;5040225;28;20189;-70
2022/01/25 03:37:34;;;;;;;2.70;2.50;;;21.60;41.50;;;;;;5023932;28;20185;-70
2022/01/25 03:40:00;;;;;;;2.50;2.30;;;21.60;41.50;;;;;;5058226;28;20218;-70
2022/01/25 03:42:26;;;;;;;2.53;2.33;;;21.60;41.50;;;;;;5040138;28;20228;-70
2022/01/25 03:44:52;;;;;;;2.55;2.35;;;21.60;41.40;;;;;;5018934;28;20187;-70
2022/01/25 03:47:22;;;;;;;2.45;2.25;;;21.60;41.40;;;;;;5001145;28;20191;-70
2022/01/25 03:49:50;;;;;;;2.97;2.78;;;21.60;41.40;;;;;;5034920;28;20213;-70
2022/01/25 03:52:23;;;;;;;3.28;2.97;;;21.60;41.40;;;;;;5017198;28;20207;-70
2022/01/25 03:54:49;;;;;;;3.30;3.10;;;21.60;41.30;;;;;;5018312;28;20217;-70
2022/01/25 03:57:17;;;;;;;2.88;2.67;;;21.60;41.30;;;;;;5054742;28;20179;-70
2022/01/25 03:59:43;;;;;;;3.10;2.90;;;21.60;41.30;;;;;;5054576;28;20198;-70
2022/01/25 04:02:10;;;;;;;2.85;2.65;;;21.60;41.30;;;;;;5020663;28;20183;-70
2022/01/25 04:04:35;;;;;;;3.00;2.70;;;21.60;41.30;;;;;;5036569;28;20557;-70
2022/01/25 04:07:08;;;;;;;3.30;3.00;;;21.60;41.30;;;;;;5020606;28;20194;-70
2022/01/25 04:09:34;;;;;;;2.92;2.72;;;21.50;41.20;;;;;;5020238;28;20213;-70
2022/01/25 04:12:01;;;;;;;2.90;2.70;;;21.60;41.30;;;;;;5020021;28;20225;-70
2022/01/25 04:14:28;;;;;;;2.70;2.50;;;21.60;41.30;;;;;;5036430;28;20272;-70
2022/01/25 04:17:02;;;;;;;2.83;2.63;;;21.60;41.30;;;;;;5036963;28;20193;-70
2022/01/25 04:19:35;;;;;;;2.65;2.45;;;21.60;41.30;;;;;;5036565;28;20297;-70
2022/01/25 04:24:56;;;;;;;2.70;2.50;;;21.60;41.30;;;;;;5032638;28;20177;-70
2022/01/25 04:27:24;;;;;;;3.20;3.00;;;21.60;41.30;;;;;;5019805;28;20723;-70
2022/01/25 04:29:51;;;;;;;3.50;3.20;;;21.60;41.20;;;;;;5019946;28;20209;-70
2022/01/25 04:32:18;;;;;;;3.60;3.20;;;21.60;41.30;;;;;;5036180;28;20290;-70
2022/01/25 04:34:57;;;;;;;3.20;2.90;;;21.60;41.20;;;;;;5036223;28;20189;-70
2022/01/25 04:51:22;;;;;;;4.13;3.83;;;21.60;41.20;;;;;;5053822;28;20197;-70
2022/01/25 04:53:57;;;;;;;3.53;3.28;;;21.50;41.10;;;;;;5035778;28;20271;-69
2022/01/25 04:56:31;;;;;;;3.47;3.20;;;21.50;41.10;;;;;;5035206;28;20204;-70
2022/01/25 04:59:18;;;;;;;2.70;2.50;;;21.50;41.10;;;;;;5017567;28;20276;-70
2022/01/25 05:01:45;;;;;;;3.28;3.08;;;21.50;41.10;;;;;;5036166;28;20170;-70
2022/01/25 05:04:17;;;;;;;2.75;2.55;;;21.50;41.10;;;;;;5035630;28;20444;-70
2022/01/25 05:06:46;;;;;;;3.08;2.88;;;21.60;41.20;;;;;;5053439;28;20233;-70
2022/01/25 05:09:13;;;;;;;3.10;2.90;;;21.60;41.10;;;;;;5018972;28;20213;-70
2022/01/25 05:11:47;;;;;;;3.45;3.25;;;21.60;41.20;;;;;;5019255;28;20249;-70
2022/01/25 05:14:24;;;;;;;4.18;3.85;;;21.60;41.00;;;;;;5044909;28;20193;-71
2022/01/25 05:16:59;;;;;;;3.40;3.10;;;21.60;41.10;;;;;;5019170;28;20185;-70
2022/01/25 05:22:12;;;;;;;3.80;3.50;;;21.60;41.10;;;;;;5053253;28;20551;-70
2022/01/25 05:24:44;;;;;;;2.95;2.75;;;21.60;41.10;;;;;;5035080;28;20266;-70
2022/01/25 05:27:13;;;;;;;3.10;2.90;;;21.60;41.10;;;;;;5035182;28;20225;-70
2022/01/25 05:29:39;;;;;;;3.50;3.20;;;21.60;41.10;;;;;;5035391;28;20211;-70
2022/01/25 05:32:06;;;;;;;3.15;2.95;;;21.60;41.10;;;;;;5052856;28;20214;-69
2022/01/25 05:34:33;;;;;;;3.67;3.38;;;21.60;41.00;;;;;;5047024;28;20194;-70
2022/01/25 05:36:59;;;;;;;3.22;3.00;;;21.60;41.00;;;;;;5018468;28;20182;-69
2022/01/25 05:39:32;;;;;;;3.30;3.10;;;21.60;41.00;;;;;;5021288;28;20214;-70
2022/01/25 05:42:16;;;;;;;3.75;3.45;;;21.50;40.90;;;;;;5070945;22;20329;-69
2022/01/25 05:45:39;;;;;;;3.92;3.63;;;21.60;41.00;;;;;;5034387;28;20170;-68
2022/01/25 05:47:31;;;;;;;4.10;3.80;;;21.60;41.00;;;;;;5041789;28;20202;-68
2022/01/25 05:49:59;;;;;;;3.33;3.10;;;21.50;40.80;;;;;;5052933;28;20174;-68
2022/01/25 05:52:26;;;;;;;3.30;3.10;;;21.50;41.00;;;;;;5022542;28;20245;-68
2022/01/25 05:54:52;;;;;;;3.47;3.28;;;21.50;40.90;;;;;;4998670;28;20191;-68
2022/01/25 05:57:18;;;;;;;3.20;3.00;;;21.60;41.00;;;;;;5014461;28;20186;-68
2022/01/25 05:59:44;;;;;;;3.30;3.10;;;21.50;41.00;;;;;;4998981;28;20194;-69
2022/01/25 06:02:11;;;;;;;3.28;3.08;;;21.50;41.00;;;;;;5015198;28;20211;-68
2022/01/25 06:04:36;;;;;;;3.75;3.45;;;21.50;40.90;;;;;;4998253;28;20206;-67
2022/01/25 06:07:02;;;;;;;3.10;2.90;;;21.50;41.00;;;;;;5015170;28;20189;-68
2022/01/25 06:09:29;;;;;;;3.42;3.22;;;21.50;40.90;;;;;;5014354;28;20240;-68
2022/01/25 06:11:55;;;;;;;3.15;2.95;;;21.50;40.90;;;;;;5014696;28;20222;-68
2022/01/25 06:14:22;;;;;;;3.20;3.00;;;21.50;40.90;;;;;;5014723;28;20187;-68
2022/01/25 06:16:47;;;;;;;3.00;2.80;;;21.50;40.90;;;;;;5015066;28;20236;-68
2022/01/25 06:19:13;;;;;;;3.47;3.17;;;21.50;40.90;;;;;;5032615;28;20274;-69
2022/01/25 06:21:39;;;;;;;3.88;3.58;;;21.50;40.90;;;;;;4998461;28;20218;-68
2022/01/25 06:24:05;;;;;;;4.30;3.90;;;21.50;40.80;;;;;;5014092;28;20191;-68
2022/01/25 06:26:31;;;;;;;4.97;4.57;;;21.60;40.90;;;;;;5032428;28;20186;-68
2022/01/25 06:28:57;;;;;;;4.82;4.43;;;21.50;40.80;;;;;;5014575;28;20179;-69
2022/01/25 06:31:23;;;;;;;4.53;4.15;;;21.50;40.80;;;;;;5014878;28;20210;-68
2022/01/25 06:33:49;;;;;;;4.68;4.28;;;21.50;40.90;;;;;;5014495;28;20194;-68
2022/01/25 06:36:15;;;;;;;5.10;4.70;;;21.50;40.80;;;;;;5030886;28;20183;-69
2022/01/25 06:38:41;;;;;;;4.47;4.15;;;21.50;40.80;;;;;;4998267;28;20289;-68
2022/01/25 06:41:10;;;;;;;4.80;4.40;;;21.50;40.80;;;;;;5014621;28;20183;-68
2022/01/25 06:43:38;;;;;;;4.70;4.30;;;21.50;40.70;;;;;;5014677;28;20188;-68
2022/01/25 06:46:04;;;;;;;4.55;4.15;;;21.50;40.80;;;;;;5014658;28;20186;-68
2022/01/25 06:48:32;;;;;;;4.55;4.15;;;21.50;40.80;;;;;;4998601;28;20187;-68
2022/01/25 06:50:58;;;;;;;3.90;3.60;;;21.50;40.80;;;;;;4998010;28;20191;-68
2022/01/25 06:53:25;;;;;;;4.10;3.80;;;21.50;40.80;;;;;;4997759;28;20219;-68
2022/01/25 06:55:51;;;;;;;4.60;4.30;;;21.50;40.90;;;;;;4997681;28;20183;-68
2022/01/25 06:58:17;;;;;;;4.80;4.40;;;21.50;40.80;;;;;;4998058;28;20214;-69
2022/01/25 07:00:43;;;;;;;4.40;4.00;;;21.50;40.80;;;;;;4998080;28;20191;-68
2022/01/25 07:03:09;;;;;;;4.47;4.07;;;21.50;40.80;;;;;;5014643;28;20217;-68
2022/01/25 07:05:35;;;;;;;4.63;4.22;;;21.50;40.80;;;;;;5008548;28;20186;-68
2022/01/25 07:08:01;;;;;;;4.97;4.47;;;21.50;40.80;;;;;;5017650;28;20193;-68
2022/01/25 07:10:27;;;;;;;4.82;4.43;;;21.50;40.80;;;;;;5034185;28;20559;-68
2022/01/25 07:12:53;;;;;;;4.85;4.45;;;21.50;40.70;;;;;;5007668;28;20769;-68
2022/01/25 07:15:19;;;;;;;5.70;5.20;;;21.50;40.80;;;;;;5014378;28;20196;-68
2022/01/25 07:17:44;;;;;;;5.63;5.18;;;21.50;40.70;;;;;;5014203;28;20176;-68
2022/01/25 07:20:12;;;;;;;5.15;4.75;;;21.50;40.70;;;;;;5014701;28;20533;-68
2022/01/25 07:22:40;;;;;;;5.85;5.35;;;21.50;40.70;;;;;;5001268;28;20211;-70
2022/01/25 07:25:10;;;;;;;5.40;4.90;;;21.50;40.70;;;;;;5001627;28;20191;-69
2022/01/25 07:27:36;;;;;;;5.43;5.03;;;21.50;40.70;;;;;;5001478;28;20219;-68
2022/01/25 07:30:04;;;;;;;5.95;5.45;;;21.50;40.70;;;;;;5016715;28;20217;-66
2022/01/25 07:32:30;;;;;;;5.72;5.22;;;21.50;40.70;;;;;;5018213;28;20211;-69
2022/01/25 07:34:56;;;;;;;5.45;5.03;;;21.50;40.70;;;;;;5024772;28;20210;-68
2022/01/25 07:37:22;;;;;;;6.22;5.65;;;21.50;40.60;;;;;;5034511;28;20176;-68
2022/01/25 07:39:48;;;;;;;4.75;4.30;;;21.50;40.70;;;;;;5017575;28;20187;-68
2022/01/25 07:42:16;;;;;;;4.97;4.53;;;21.50;40.70;;;;;;5001161;28;20264;-68
2022/01/25 07:44:48;;;;;;;4.97;4.50;;;21.50;40.70;;;;;;5002134;28;20186;-68
2022/01/25 07:47:14;;;;;;;5.22;4.82;;;21.50;40.70;;;;;;5017392;28;20186;-68
2022/01/25 07:49:40;;;;;;;4.93;4.43;;;21.50;40.70;;;;;;5034784;28;20677;-67
2022/01/25 07:52:07;;;;;;;5.85;5.35;;;21.50;40.70;;;;;;5010127;28;20206;-68
2022/01/25 07:54:33;;;;;;;5.65;5.15;;;21.50;40.60;;;;;;5036759;28;20207;-69
2022/01/25 07:56:59;;;;;;;5.22;4.82;;;21.50;40.70;;;;;;5020497;28;20186;-68
2022/01/25 07:59:25;;;;;;;6.10;5.60;;;21.50;40.60;;;;;;5053749;28;20183;-68
2022/01/25 08:01:51;;;;;;;5.15;4.75;;;21.50;40.60;;;;;;5002150;28;20269;-68
2022/01/25 08:04:18;;;;;;;6.07;5.57;;;21.50;40.60;;;;;;5017017;28;20171;-68
2022/01/25 08:06:45;;;;;;;5.90;5.38;;;21.50;40.60;;;;;;5017034;28;20186;-68
2022/01/25 08:09:11;;;;;;;6.63;6.00;;;21.50;40.60;;;;;;5016968;28;20666;-69
2022/01/25 08:11:37;;;;;;;6.75;6.15;;;21.50;40.60;;;;;;5016837;28;20223;-68
2022/01/25 08:14:12;;;;;;;7.72;7.05;;;21.50;40.60;;;;;;5017173;28;20191;-68
2022/01/25 08:16:41;;;;;;;7.65;6.93;;;21.50;40.60;;;;;;5017008;28;20171;-68
2022/01/25 08:19:07;;;;;;;7.57;6.95;;;21.50;40.60;;;;;;5036843;28;20187;-68
2022/01/25 08:21:33;;;;;;;7.55;6.85;;;21.50;40.60;;;;;;5020477;28;20199;-68
2022/01/25 08:23:59;;;;;;;8.00;7.28;;;21.50;40.50;;;;;;5035829;28;20191;-69
2022/01/25 08:26:24;;;;;;;7.63;6.93;;;21.50;40.60;;;;;;5000138;28;20189;-68
2022/01/25 08:28:50;;;;;;;7.03;6.38;;;21.60;40.60;;;;;;5016993;28;20282;-68
2022/01/25 08:31:16;;;;;;;6.40;5.90;;;21.50;40.40;;;;;;5033652;28;20235;-68
2022/01/25 08:33:41;;;;;;;6.30;5.80;;;21.50;40.60;;;;;;5034173;28;20175;-68
2022/01/25 08:36:07;;;;;;;6.25;5.72;;;21.60;40.60;;;;;;5016338;28;20183;-68
2022/01/25 08:38:33;;;;;;;6.15;5.65;;;21.60;40.70;;;;;;5000294;28;20310;-68
2022/01/25 08:40:59;;;;;;;6.70;6.10;;;21.60;40.60;;;;;;4996386;28;20678;-67
2022/01/25 08:43:24;;;;;;;6.28;5.78;;;21.60;40.70;;;;;;5013202;28;20199;-68
2022/01/25 08:45:50;;;;;;;6.57;5.97;;;21.60;40.60;;;;;;4980383;28;20222;-68
2022/01/25 08:48:16;;;;;;;6.68;6.13;;;21.60;40.60;;;;;;5013270;28;20612;-68
2022/01/25 08:50:42;;;;;;;6.93;6.28;;;21.60;40.60;;;;;;4989286;28;20191;-68
2022/01/25 08:53:09;;;;;;;6.90;6.30;;;21.60;40.60;;;;;;4999752;28;20249;-68
2022/01/25 08:55:34;;;;;;;7.60;6.90;;;21.60;40.60;;;;;;5016150;28;20215;-68
2022/01/25 08:58:01;;;;;;;7.10;6.50;;;21.60;40.60;;;;;;5033972;28;20238;-68
2022/01/25 09:00:27;;;;;;;7.68;6.95;;;21.60;40.60;;;;;;5033491;28;20186;-68
2022/01/25 09:02:53;;;;;;;7.82;7.13;;;21.60;40.60;;;;;;5032762;28;20201;-68
2022/01/25 09:05:19;;;;;;;8.70;7.90;;;21.60;40.60;;;;;;5015647;28;20635;-68
2022/01/25 09:07:45;;;;;;;8.80;7.90;;;21.60;40.60;;;;;;5016235;28;20189;-68
2022/01/25 09:10:11;;;;;;;8.57;7.45;;;21.60;40.60;;;;;;5015605;28;20211;-68
2022/01/25 09:12:37;;;;;;;8.18;7.38;;;21.60;40.60;;;;;;4999804;28;20229;-68
2022/01/25 09:15:04;;;;;;;7.90;7.20;;;21.60;40.60;;;;;;5015951;28;20179;-68
2022/01/25 09:17:30;;;;;;;7.95;7.25;;;21.60;40.70;;;;;;5037788;28;20190;-70
2022/01/25 09:19:55;;;;;;;7.65;6.93;;;21.60;40.60;;;;;;5015490;28;20191;-69
2022/01/25 09:22:21;;;;;;;7.50;6.80;;;21.60;40.70;;;;;;4999253;28;20214;-69
2022/01/25 09:24:49;;;;;;;6.57;6.03;;;21.60;40.70;;;;;;5019482;28;20183;-68
2022/01/25 09:27:15;;;;;;;6.70;6.10;;;21.60;40.70;;;;;;5015554;28;20643;-68
2022/01/25 09:29:40;;;;;;;6.20;5.70;;;21.60;40.70;;;;;;5015139;28;20222;-69
2022/01/25 09:32:07;;;;;;;5.80;5.30;;;21.60;40.70;;;;;;4999043;28;20222;-68
2022/01/25 09:34:32;;;;;;;6.32;5.72;;;21.60;40.70;;;;;;5032865;28;20179;-68
2022/01/25 09:36:58;;;;;;;6.32;5.72;;;21.60;40.70;;;;;;5015467;28;20380;-68
2022/01/25 09:39:24;;;;;;;6.00;5.50;;;21.60;40.70;;;;;;4999044;28;20191;-68
2022/01/25 09:41:52;;;;;;;6.05;5.45;;;21.60;40.70;;;;;;5015107;28;20219;-69
2022/01/25 09:44:18;;;;;;;6.25;5.65;;;21.60;40.70;;;;;;5014335;28;20198;-68
2022/01/25 09:46:44;;;;;;;5.80;5.30;;;21.70;40.70;;;;;;5040259;28;20194;-68
2022/01/25 09:49:11;;;;;;;5.43;4.93;;;21.70;40.80;;;;;;5015158;28;20191;-69
2022/01/25 09:51:41;;;;;;;5.38;4.88;;;21.70;40.80;;;;;;5014627;28;20262;-69
2022/01/25 09:54:08;;;;;;;5.80;5.20;;;21.70;40.70;;;;;;5017579;28;20237;-68
2022/01/25 09:56:33;;;;;;;5.75;5.25;;;21.70;40.80;;;;;;5014741;28;20238;-68
2022/01/25 09:59:00;;;;;;;5.63;5.13;;;21.70;40.80;;;;;;5002392;28;20188;-68
2022/01/25 10:01:30;;;;;;;5.82;5.32;;;21.70;40.80;;;;;;4985308;28;20203;-68
2022/01/25 10:03:58;;;;;;;5.35;4.85;;;21.70;40.80;;;;;;5014427;28;20185;-68
2022/01/25 10:06:31;;;;;;;6.50;5.90;;;21.70;40.80;;;;;;5014397;28;20179;-70
2022/01/25 10:08:57;;;;;;;6.13;5.53;;;21.70;40.90;;;;;;5014724;28;20673;-68
2022/01/25 10:11:25;;;;;;;6.05;5.55;;;21.70;40.90;;;;;;5030502;28;20645;-68
2022/01/25 10:13:56;;;;;;;6.30;5.72;;;21.70;40.90;;;;;;4998398;28;20179;-68
2022/01/25 10:16:38;;;;;;;5.20;4.80;;;21.80;41.00;;;;;;5015013;28;20283;-68
2022/01/25 10:19:13;;;;;;;4.55;4.15;;;21.70;40.90;;;;;;5014826;28;20175;-68
2022/01/25 10:21:42;;;;;;;4.78;4.38;;;21.80;41.00;;;;;;5014313;28;20215;-68
2022/01/25 10:24:08;;;;;;;4.93;4.18;;;21.70;40.90;;;;;;5026291;28;20217;-68
2022/01/25 10:26:43;;;;;;;4.55;4.15;;;21.80;41.00;;;;;;5010684;28;20187;-68
2022/01/25 10:29:13;;;;;;;4.38;3.97;;;21.80;41.00;;;;;;5003792;28;20175;-68
2022/01/25 10:31:45;;;;;;;4.80;4.40;;;21.80;41.10;;;;;;5036250;28;20210;-68
2022/01/25 10:34:15;;;;;;;5.47;5.00;;;21.80;41.10;;;;;;5032744;28;20266;-68
2022/01/25 10:36:48;;;;;;;5.15;4.75;;;21.80;41.10;;;;;;5014538;28;20592;-68
2022/01/25 10:39:33;;;;;;;5.30;4.90;;;21.70;41.00;;;;;;5014877;28;20171;-68
2022/01/25 10:42:08;;;;;;;5.28;4.88;;;21.80;41.10;;;;;;4997951;28;20230;-68
2022/01/25 10:44:59;;;;;;;4.10;3.78;;;21.80;41.10;;;;;;5030871;28;20225;-68
2022/01/25 10:47:51;;;;;;;4.72;4.32;;;21.80;41.10;;;;;;4998422;28;20188;-67
2022/01/25 10:50:31;;;;;;;4.53;4.13;;;21.80;41.10;;;;;;4998124;28;20187;-68
2022/01/25 10:53:02;;;;;;;4.97;4.55;;;21.80;41.10;;;;;;4998181;28;20222;-68
2022/01/25 10:55:44;;;;;;;5.43;5.03;;;21.80;41.20;;;;;;5000700;28;20184;-68
2022/01/25 10:58:12;;;;;;;5.35;4.85;;;21.80;41.20;;;;;;5002073;28;20240;-66
2022/01/25 11:00:43;;;;;;;5.13;4.63;;;21.80;41.20;;;;;;5035764;28;20265;-67
2022/01/25 11:03:10;;;;;;;3.85;3.55;;;21.80;41.20;;;;;;5002207;28;20214;-68
2022/01/25 11:05:41;;;;;;;3.97;3.67;;;21.80;41.30;;;;;;5007270;28;20187;-68
2022/01/25 11:08:18;;;;;;;3.42;3.22;;;21.80;41.30;;;;;;5018014;28;20262;-68
2022/01/25 11:10:59;;;;;;;3.90;3.60;;;21.80;41.30;;;;;;5001424;28;20206;-68
2022/01/25 11:15:56;;;;;;;3.88;3.47;;;21.80;41.20;;;;;;5017947;28;20551;-68
2022/01/25 11:18:22;;;;;;;3.75;3.47;;;21.90;41.40;;;;;;4998352;28;20180;-68
2022/01/25 11:20:53;;;;;;;4.22;3.83;;;21.90;41.40;;;;;;5022806;28;20187;-68
2022/01/25 11:23:19;;;;;;;4.78;4.38;;;21.80;41.30;;;;;;5017532;28;20686;-68
2022/01/25 11:25:48;;;;;;;4.72;4.30;;;21.90;41.40;;;;;;5017583;28;20191;-68
2022/01/25 11:28:14;;;;;;;4.65;4.25;;;21.90;41.40;;;;;;5050968;28;20726;-68
2022/01/25 11:30:43;;;;;;;4.57;4.18;;;21.90;41.40;;;;;;5001402;28;20199;-69
2022/01/25 11:33:12;;;;;;;4.53;4.13;;;21.90;41.40;;;;;;5035203;28;20218;-68
2022/01/25 11:35:40;;;;;;;4.45;4.05;;;21.90;41.50;;;;;;5007524;28;20659;-68
2022/01/25 11:38:07;;;;;;;4.20;3.80;;;21.90;41.50;;;;;;5001263;28;20190;-68
2022/01/25 11:40:38;;;;;;;3.30;3.10;;;21.90;41.50;;;;;;5012451;28;20282;-69
2022/01/25 11:45:45;;;;;;;3.80;3.33;;;21.90;41.50;;;;;;5039337;28;20215;-69
2022/01/25 11:48:11;;;;;;;3.10;2.90;;;21.90;41.50;;;;;;5017874;28;20187;-70
2022/01/25 11:50:43;;;;;;;3.45;3.15;;;21.90;41.50;;;;;;5024023;28;20183;-70
2022/01/25 11:53:17;;;;;;;2.90;2.60;;;21.90;41.50;;;;;;5018879;28;20231;-70
2022/01/25 11:55:52;;;;;;;3.35;3.05;;;21.90;41.50;;;;;;5014503;28;20191;-69
2022/01/25 11:58:30;;;;;;;3.83;3.47;;;21.90;41.60;;;;;;4998502;28;20188;-70
2022/01/25 12:01:04;;;;;;;3.40;3.10;;;21.90;41.50;;;;;;5013781;28;20190;-69
2022/01/25 12:03:45;;;;;;;5.22;4.00;;;21.90;41.60;;;;;;4984127;28;20211;-70
2022/01/25 12:06:21;;;;;;;3.67;3.38;;;21.90;41.60;;;;;;4996610;28;20551;-69
2022/01/25 12:09:06;;;;;;;3.00;2.80;;;21.90;41.60;;;;;;5022390;28;20266;-68
2022/01/25 12:11:53;;;;;;;4.20;3.13;;;21.90;41.60;;;;;;5000461;28;20206;-69
2022/01/25 12:14:29;;;;;;;3.20;2.90;;;21.90;41.70;;;;;;5034542;28;20180;-68
2022/01/25 12:17:02;;;;;;;4.10;3.72;;;21.90;41.60;;;;;;5000624;28;20182;-68
2022/01/25 12:19:30;;;;;;;4.40;4.00;;;21.90;41.60;;;;;;5000521;28;20203;-69
2022/01/25 12:22:07;;;;;;;4.60;4.20;;;22.00;41.70;;;;;;5016676;28;20219;-70
2022/01/25 12:25:05;;;;;;;4.30;4.00;;;21.90;41.70;;;;;;5016782;28;20202;-70
2022/01/25 12:27:59;;;;;;;2.80;2.60;;;21.90;41.60;;;;;;5017976;28;20184;-70
2022/01/25 12:30:25;;;;;;;3.22;2.92;;;21.90;41.60;;;;;;5021438;28;20176;-69
2022/01/25 12:33:20;;;;;;;2.80;2.60;;;22.00;41.80;;;;;;5013589;28;20216;-70
2022/01/25 12:36:00;;;;;;;5.20;4.75;;;21.90;41.70;;;;;;4980550;28;20176;-70
2022/01/25 12:38:38;;;;;;;4.72;4.32;;;22.00;41.80;;;;;;4994582;28;20199;-70
2022/01/25 12:41:25;;;;;;;4.40;4.10;;;21.90;41.80;;;;;;4995232;28;20233;-70
2022/01/25 12:44:02;;;;;;;3.80;3.50;;;22.00;41.80;;;;;;5013366;28;20199;-70
2022/01/25 12:46:40;;;;;;;3.28;2.97;;;21.90;41.80;;;;;;5018692;28;20171;-69
2022/01/25 12:49:13;;;;;;;3.22;2.97;;;21.90;41.80;;;;;;4999908;28;20638;-70
2022/01/25 12:51:42;;;;;;;3.20;2.90;;;22.00;41.80;;;;;;5021163;28;20172;-69
2022/01/25 12:54:11;;;;;;;3.88;3.55;;;22.00;41.80;;;;;;5003726;28;20184;-69
2022/01/25 12:56:46;;;;;;;5.30;4.20;;;22.00;41.80;;;;;;4996388;28;20180;-70
2022/01/25 12:59:22;;;;;;;5.55;5.05;;;22.00;41.80;;;;;;5021129;28;20183;-69
2022/01/25 13:01:51;;;;;;;5.35;4.85;;;21.90;41.80;;;;;;4996342;28;20215;-69
2022/01/25 13:04:17;;;;;;;5.18;4.72;;;22.00;41.90;;;;;;5004271;28;20206;-69
2022/01/25 13:06:48;;;;;;;5.32;4.82;;;22.00;41.90;;;;;;4999876;28;20195;-69
2022/01/25 13:09:25;;;;;;;4.85;4.45;;;21.90;41.80;;;;;;5015950;28;20202;-69
2022/01/25 13:17:07;;;;;;;4.15;3.80;;;22.00;41.90;;;;;;5012315;28;20179;-70
2022/01/25 13:19:50;;;;;;;4.15;3.78;;;22.00;41.90;;;;;;4995472;28;20183;-69
2022/01/25 13:22:19;;;;;;;4.93;4.45;;;22.00;41.90;;;;;;5008684;28;20206;-70
2022/01/25 13:25:20;;;;;;;5.88;5.35;;;22.00;42.00;;;;;;5007511;28;20192;-68
2022/01/25 13:27:48;;;;;;;5.28;4.82;;;22.00;42.00;;;;;;4995949;28;20181;-69
2022/01/25 13:33:04;;;;;;;4.90;4.50;;;22.00;42.00;;;;;;5020046;28;20222;-69
2022/01/25 13:35:34;;;;;;;4.10;3.80;;;22.00;42.00;;;;;;5027635;28;20188;-70
2022/01/25 13:38:21;;;;;;;4.45;4.15;;;22.00;42.00;;;;;;4995956;28;20192;-69
2022/01/25 13:41:14;;;;;;;4.65;4.25;;;22.00;42.00;;;;;;5005784;28;20231;-70
2022/01/25 13:46:41;;;;;;;5.88;5.38;;;22.00;42.10;;;;;;5028695;28;20188;-69
2022/01/25 13:49:18;;;;;;;4.63;4.22;;;22.00;42.00;;;;;;5011124;28;20206;-70
2022/01/25 13:51:57;;;;;;;4.70;4.30;;;22.00;42.00;;;;;;5015207;28;20215;-70
2022/01/25 13:54:27;;;;;;;4.53;4.13;;;22.00;42.10;;;;;;5014945;28;20245;-69
2022/01/25 13:56:55;;;;;;;4.65;4.25;;;22.00;42.10;;;;;;5015542;28;20650;-70
2022/01/25 13:59:23;;;;;;;4.68;4.28;;;22.00;42.10;;;;;;5032808;28;20183;-69
2022/01/25 14:01:50;;;;;;;4.40;4.07;;;22.00;42.10;;;;;;4996517;28;20243;-69
2022/01/25 14:04:21;;;;;;;5.68;5.18;;;22.00;42.20;;;;;;5014995;28;20187;-70
2022/01/25 14:06:56;;;;;;;5.68;5.18;;;22.00;42.20;;;;;;4998385;28;20551;-70
2022/01/25 14:09:30;;;;;;;7.32;6.07;;;22.00;42.20;;;;;;5000652;28;20234;-70
2022/01/25 14:23:18;;;;;;;5.15;4.75;;;22.00;42.20;;;;;;5028704;28;20247;-70
2022/01/25 14:25:45;;;;;;;6.18;5.57;;;22.00;42.20;;;;;;5012356;28;20195;-70
2022/01/25 14:28:23;;;;;;;5.63;5.13;;;22.00;42.20;;;;;;4995062;28;20183;-70
2022/01/25 14:30:56;;;;;;;5.88;5.25;;;22.00;42.20;;;;;;5000075;28;20198;-68
2022/01/25 14:33:30;;;;;;;5.50;5.00;;;22.00;42.20;;;;;;5021679;28;20215;-70
2022/01/25 14:36:08;;;;;;;4.88;4.47;;;22.00;42.40;;;;;;4994995;28;20176;-70
2022/01/25 14:38:37;;;;;;;4.25;3.95;;;22.00;42.20;;;;;;4997712;28;20242;-69
2022/01/25 14:41:11;;;;;;;5.10;4.60;;;22.00;42.30;;;;;;4998033;28;20186;-70
2022/01/25 14:43:52;;;;;;;7.25;4.82;;;22.00;42.30;;;;;;4995670;28;20302;-70
2022/01/25 14:46:35;;;;;;;4.78;4.38;;;22.00;42.20;;;;;;4993379;28;20187;-69
2022/01/25 14:49:21;;;;;;;5.70;5.20;;;22.00;42.30;;;;;;4996546;28;20215;-70
2022/01/25 14:51:53;;;;;;;5.30;4.80;;;22.00;42.30;;;;;;4993451;28;20224;-70